createdAt,value
2018-12-01T00:00:35.220Z,12.50
2018-12-01T00:03:03.428Z,12.57
2018-12-01T00:05:31.653Z,12.80
2018-12-01T00:07:59.826Z,13.30
2018-12-01T00:10:28.027Z,12.90
2018-12-01T00:12:56.241Z,13.57
2018-12-01T00:15:25.777Z,13.50
2018-12-01T00:17:54.476Z,13.50
2018-12-01T00:20:24.136Z,14.47
2018-12-01T00:22:52.340Z,14.77
2018-12-01T00:25:20.561Z,13.67
2018-12-01T00:27:48.798Z,13.03
2018-12-01T00:30:17.835Z,13.90
2018-12-01T00:32:47.024Z,13.50
2018-12-01T00:35:15.224Z,14.40
2018-12-01T00:37:43.417Z,14.00
2018-12-01T00:40:13.727Z,13.03
2018-12-01T00:42:41.938Z,13.40
2018-12-01T00:45:11.424Z,13.43
2018-12-01T00:47:39.616Z,12.73
2018-12-01T00:50:11.364Z,12.20
2018-12-01T00:52:39.544Z,12.10
2018-12-01T00:55:10.278Z,12.63
2018-12-01T00:57:38.449Z,13.90
2018-12-01T01:00:19.045Z,12.27
2018-12-01T01:02:53.062Z,11.90
2018-12-01T01:05:22.090Z,12.20
2018-12-01T01:07:50.260Z,12.90
2018-12-01T01:10:18.762Z,12.50
2018-12-01T01:12:46.987Z,12.90
2018-12-01T01:15:15.186Z,12.43
2018-12-01T01:17:43.437Z,12.63
2018-12-01T01:20:13.713Z,13.50
2018-12-01T01:22:41.913Z,12.13
2018-12-01T01:25:11.193Z,12.60
2018-12-01T01:27:39.412Z,13.57
2018-12-01T01:30:10.523Z,13.43
2018-12-01T01:32:38.770Z,13.13
2018-12-01T01:35:06.989Z,12.37
2018-12-01T01:37:35.187Z,12.80
2018-12-01T01:40:03.403Z,12.70
2018-12-01T01:42:31.577Z,12.43
2018-12-01T01:44:59.776Z,11.60
2018-12-01T01:47:28.449Z,12.00
2018-12-01T01:49:56.672Z,12.03
2018-12-01T01:52:24.850Z,12.30
2018-12-01T01:54:53.053Z,11.87
2018-12-01T01:57:21.268Z,13.13
2018-12-01T01:59:49.455Z,11.33
2018-12-01T02:02:17.660Z,12.83
2018-12-01T02:04:45.866Z,12.13
2018-12-01T02:07:14.066Z,12.20
2018-12-01T02:09:42.276Z,12.43
2018-12-01T02:12:10.461Z,11.77
2018-12-01T02:14:38.675Z,11.27
2018-12-01T02:17:06.862Z,12.70
2018-12-01T02:19:35.024Z,12.17
2018-12-01T02:22:03.398Z,12.60
2018-12-01T02:24:31.581Z,12.20
2018-12-01T02:26:59.756Z,11.97
2018-12-01T02:29:27.919Z,11.90
2018-12-01T02:31:56.107Z,12.23
2018-12-01T02:34:24.301Z,11.10
2018-12-01T02:36:52.483Z,12.20
2018-12-01T02:39:20.742Z,11.40
2018-12-01T02:41:48.857Z,12.10
2018-12-01T02:44:28.338Z,12.77
2018-12-01T02:47:08.602Z,12.17
2018-12-01T02:49:37.049Z,12.20
2018-12-01T02:52:06.470Z,11.73
2018-12-01T02:54:34.932Z,10.70
2018-12-01T02:57:03.118Z,11.30
2018-12-01T02:59:31.497Z,12.27
2018-12-01T03:01:59.698Z,12.00
2018-12-01T03:04:27.888Z,12.23
2018-12-01T03:06:56.110Z,12.03
2018-12-01T03:09:24.324Z,11.80
2018-12-01T03:11:52.558Z,11.83
2018-12-01T03:14:20.898Z,11.70
2018-12-01T03:16:49.157Z,12.50
2018-12-01T03:19:17.494Z,12.20
2018-12-01T03:21:45.719Z,12.20
2018-12-01T03:24:13.896Z,12.27
2018-12-01T03:26:42.085Z,12.57
2018-12-01T03:29:10.959Z,12.47
2018-12-01T03:31:39.305Z,12.47
2018-12-01T03:34:07.499Z,13.10
2018-12-01T03:36:35.724Z,12.30
2018-12-01T03:39:04.261Z,12.57
2018-12-01T03:41:32.466Z,12.87
2018-12-01T03:44:00.758Z,11.97
2018-12-01T03:46:28.962Z,12.27
2018-12-01T03:48:57.265Z,12.90
2018-12-01T03:51:25.476Z,11.53
2018-12-01T03:53:53.687Z,11.80
2018-12-01T03:56:21.866Z,11.80
2018-12-01T03:58:50.029Z,13.13
2018-12-01T04:01:18.213Z,12.70
2018-12-01T04:03:46.385Z,12.57
2018-12-01T04:06:14.803Z,13.10
2018-12-01T04:08:42.980Z,13.50
2018-12-01T04:11:11.192Z,12.67
2018-12-01T04:13:39.388Z,13.20
2018-12-01T04:16:07.705Z,12.80
2018-12-01T04:18:35.979Z,12.33
2018-12-01T04:21:04.193Z,12.80
2018-12-01T04:23:32.373Z,12.00
2018-12-01T04:26:00.617Z,13.10
2018-12-01T04:28:28.827Z,12.20
2018-12-01T04:30:57.020Z,12.10
2018-12-01T04:33:25.262Z,12.17
2018-12-01T04:35:53.503Z,12.97
2018-12-01T04:38:21.707Z,12.90
2018-12-01T04:40:49.937Z,13.27
2018-12-01T04:43:18.135Z,13.00
2018-12-01T04:45:46.346Z,13.30
2018-12-01T04:48:14.641Z,12.97
2018-12-01T04:50:42.808Z,12.53
2018-12-01T04:53:11.022Z,13.03
2018-12-01T04:55:39.197Z,13.27
2018-12-01T04:58:07.665Z,13.50
2018-12-01T05:00:35.872Z,13.90
2018-12-01T05:03:04.086Z,12.90
2018-12-01T05:05:32.273Z,12.17
2018-12-01T05:08:00.446Z,12.23
2018-12-01T05:10:28.819Z,11.90
2018-12-01T05:12:57.037Z,13.37
2018-12-01T05:15:25.227Z,12.90
2018-12-01T05:17:53.425Z,13.83
2018-12-01T05:20:23.508Z,13.20
2018-12-01T05:22:52.452Z,12.70
2018-12-01T05:25:20.665Z,12.60
2018-12-01T05:27:48.839Z,12.60
2018-12-01T05:30:17.079Z,13.07
2018-12-01T05:32:45.288Z,12.60
2018-12-01T05:35:19.573Z,13.43
2018-12-01T05:37:47.794Z,12.17
2018-12-01T05:40:16.008Z,13.47
2018-12-01T05:42:44.195Z,12.60
2018-12-01T05:45:14.644Z,12.30
2018-12-01T05:47:42.807Z,11.80
2018-12-01T05:50:11.723Z,12.00
2018-12-01T05:52:39.960Z,11.80
2018-12-01T05:55:09.452Z,11.80
2018-12-01T05:57:37.669Z,12.23
2018-12-01T06:00:12.989Z,13.37
2018-12-01T06:02:41.222Z,11.40
2018-12-01T06:05:10.260Z,11.57
2018-12-01T06:07:38.561Z,11.10
2018-12-01T06:10:23.241Z,11.53
2018-12-01T06:12:53.209Z,11.10
2018-12-01T06:15:21.889Z,11.53
2018-12-01T06:17:50.058Z,12.80
2018-12-01T06:20:19.569Z,12.27
2018-12-01T06:22:47.777Z,11.77
2018-12-01T06:25:17.471Z,11.90
2018-12-01T06:27:45.683Z,11.57
2018-12-01T06:30:14.962Z,11.87
2018-12-01T06:32:43.417Z,12.13
2018-12-01T06:35:11.624Z,11.70
2018-12-01T06:37:39.841Z,12.23
2018-12-01T06:40:12.453Z,11.60
2018-12-01T06:42:40.837Z,11.80
2018-12-01T06:45:10.128Z,11.97
2018-12-01T06:47:38.353Z,13.73
2018-12-01T06:50:08.739Z,12.50
2018-12-01T06:52:37.106Z,11.67
2018-12-01T06:55:06.109Z,12.50
2018-12-01T06:57:34.325Z,11.57
2018-12-01T07:00:02.523Z,11.50
2018-12-01T07:02:30.729Z,13.23
2018-12-01T07:04:58.952Z,12.90
2018-12-01T07:07:27.269Z,11.00
2018-12-01T07:09:55.593Z,12.50
2018-12-01T07:12:23.788Z,11.23
2018-12-01T07:14:52.001Z,12.07
2018-12-01T07:17:20.190Z,11.43
2018-12-01T07:19:48.414Z,11.80
2018-12-01T07:22:16.629Z,11.50
2018-12-01T07:24:44.802Z,11.77
2018-12-01T07:27:13.145Z,11.77
2018-12-01T07:29:41.385Z,12.90
2018-12-01T07:32:09.669Z,12.73
2018-12-01T07:34:37.905Z,13.33
2018-12-01T07:37:06.164Z,13.90
2018-12-01T07:39:34.392Z,12.23
2018-12-01T07:42:02.606Z,14.20
2018-12-01T07:44:30.768Z,12.00
2018-12-01T07:46:58.957Z,12.13
2018-12-01T07:49:27.225Z,13.27
2018-12-01T07:51:55.475Z,13.37
2018-12-01T07:54:23.662Z,12.73
2018-12-01T07:56:51.829Z,12.60
2018-12-01T07:59:20.049Z,12.40
2018-12-01T08:01:48.261Z,13.90
2018-12-01T08:04:16.514Z,13.20
2018-12-01T08:06:44.756Z,12.30
2018-12-01T08:09:12.989Z,12.63
2018-12-01T08:11:41.161Z,12.83
2018-12-01T08:14:09.381Z,12.60
2018-12-01T08:16:37.600Z,13.90
2018-12-01T08:19:05.920Z,11.80
2018-12-01T08:21:34.121Z,13.20
2018-12-01T08:24:02.338Z,13.50
2018-12-01T08:26:30.530Z,12.50
2018-12-01T08:28:58.715Z,13.47
2018-12-01T08:31:26.911Z,15.30
2018-12-01T08:33:55.113Z,13.87
2018-12-01T08:36:23.353Z,13.73
2018-12-01T08:38:51.567Z,13.37
2018-12-01T08:41:19.762Z,12.80
2018-12-01T08:43:47.952Z,14.47
2018-12-01T08:46:16.191Z,12.57
2018-12-01T08:48:44.418Z,12.40
2018-12-01T08:51:12.665Z,14.40
2018-12-01T08:53:40.879Z,13.00
2018-12-01T08:56:09.142Z,12.87
2018-12-01T08:58:37.332Z,12.83
2018-12-01T09:01:06.370Z,12.73
2018-12-01T09:03:34.573Z,11.23
2018-12-01T09:06:02.818Z,11.37
2018-12-01T09:08:31.033Z,11.17
2018-12-01T09:10:59.256Z,10.77
2018-12-01T09:13:27.501Z,11.60
2018-12-01T09:15:55.737Z,11.90
2018-12-01T09:18:23.973Z,11.40
2018-12-01T09:20:52.241Z,11.80
2018-12-01T09:23:20.465Z,12.07
2018-12-01T09:25:48.677Z,11.23
2018-12-01T09:28:16.930Z,11.40
2018-12-01T09:30:45.126Z,11.27
2018-12-01T09:33:13.361Z,11.43
2018-12-01T09:35:41.537Z,11.50
2018-12-01T09:38:09.725Z,12.30
2018-12-01T09:40:37.947Z,12.23
2018-12-01T09:43:06.645Z,11.40
2018-12-01T09:45:34.855Z,12.97
2018-12-01T09:48:03.049Z,10.60
2018-12-01T09:50:31.284Z,11.90
2018-12-01T09:52:59.469Z,12.17
2018-12-01T09:55:28.894Z,12.37
2018-12-01T09:57:57.748Z,12.50
2018-12-01T10:00:33.101Z,12.93
2018-12-01T10:03:02.583Z,12.40
2018-12-01T10:05:31.374Z,12.87
2018-12-01T10:07:59.558Z,12.63
2018-12-01T10:10:27.800Z,12.20
2018-12-01T10:12:56.812Z,11.97
2018-12-01T10:15:33.992Z,11.50
2018-12-01T10:18:02.182Z,11.83
2018-12-01T10:20:31.673Z,11.23
2018-12-01T10:23:00.886Z,12.47
2018-12-01T10:25:29.100Z,11.67
2018-12-01T10:27:57.395Z,11.93
2018-12-01T10:30:32.217Z,11.40
2018-12-01T10:33:00.412Z,11.83
2018-12-01T10:35:28.682Z,12.00
2018-12-01T10:37:58.314Z,12.10
2018-12-01T10:40:26.667Z,11.77
2018-12-01T10:42:54.991Z,11.70
2018-12-01T10:45:23.670Z,11.70
2018-12-01T10:47:52.057Z,11.60
2018-12-01T10:50:21.501Z,11.00
2018-12-01T10:52:50.999Z,11.50
2018-12-01T10:55:25.272Z,12.33
2018-12-01T10:57:56.866Z,12.10
2018-12-01T11:00:30.344Z,11.83
2018-12-01T11:05:11.830Z,10.30
2018-12-01T11:07:40.050Z,10.97
2018-12-01T11:10:09.118Z,11.10
2018-12-01T11:12:37.592Z,11.20
2018-12-01T11:15:07.488Z,11.50
2018-12-01T11:17:35.682Z,10.50
2018-12-01T11:20:05.174Z,11.53
2018-12-01T11:22:33.337Z,10.07
2018-12-01T11:25:01.621Z,10.93
2018-12-01T11:27:29.792Z,10.63
2018-12-01T11:29:58.042Z,8.67
2018-12-01T11:32:26.284Z,9.30
2018-12-01T11:34:54.481Z,8.57
2018-12-01T11:37:22.678Z,7.87
2018-12-01T11:39:50.869Z,7.33
2018-12-01T11:42:19.256Z,7.50
2018-12-01T11:44:47.488Z,8.67
2018-12-01T11:47:15.694Z,8.27
2018-12-01T11:49:43.874Z,7.83
2018-12-01T11:52:12.102Z,7.87
2018-12-01T11:54:40.705Z,7.70
2018-12-01T11:57:08.908Z,7.33
2018-12-01T11:59:37.110Z,7.70
2018-12-01T12:02:05.563Z,7.53
2018-12-01T12:04:33.743Z,7.30
2018-12-01T12:07:01.950Z,7.30
2018-12-01T12:09:30.266Z,7.17
2018-12-01T12:11:58.454Z,7.47
2018-12-01T12:14:26.637Z,7.07
2018-12-01T12:16:54.837Z,7.27
2018-12-01T12:19:23.042Z,7.37
2018-12-01T12:21:51.205Z,6.70
2018-12-01T12:24:19.403Z,7.53
2018-12-01T12:26:47.605Z,7.57
2018-12-01T12:29:15.836Z,7.40
2018-12-01T12:31:44.172Z,6.90
2018-12-01T12:34:12.348Z,6.80
2018-12-01T12:36:40.525Z,6.33
2018-12-01T12:39:08.706Z,6.93
2018-12-01T12:41:36.897Z,6.57
2018-12-01T12:44:05.658Z,6.60
2018-12-01T12:46:34.097Z,6.80
2018-12-01T12:49:02.068Z,6.27
2018-12-01T12:51:30.261Z,6.70
2018-12-01T12:53:58.435Z,5.63
2018-12-01T12:56:26.613Z,6.53
2018-12-01T12:58:54.797Z,6.80
2018-12-01T13:01:22.973Z,6.50
2018-12-01T13:03:51.202Z,5.80
2018-12-01T13:06:19.449Z,6.20
2018-12-01T13:08:47.732Z,6.97
2018-12-01T13:11:15.973Z,6.57
2018-12-01T13:13:44.321Z,6.53
2018-12-01T13:16:12.603Z,6.27
2018-12-01T13:18:41.218Z,6.50
2018-12-01T13:21:09.536Z,6.90
2018-12-01T13:23:37.847Z,7.13
2018-12-01T13:26:06.369Z,7.80
2018-12-01T13:28:34.874Z,8.73
2018-12-01T13:31:03.320Z,6.67
2018-12-01T13:33:31.822Z,6.40
2018-12-01T13:36:00.050Z,7.17
2018-12-01T13:38:28.502Z,6.30
2018-12-01T13:40:56.831Z,6.27
2018-12-01T13:43:25.209Z,6.67
2018-12-01T13:45:53.741Z,6.23
2018-12-01T13:48:22.277Z,6.67
2018-12-01T13:50:50.680Z,6.17
2018-12-01T13:53:18.918Z,6.60
2018-12-01T13:55:47.284Z,6.77
2018-12-01T13:58:15.824Z,6.40
2018-12-01T14:00:44.216Z,6.67
2018-12-01T14:03:12.507Z,6.33
2018-12-01T14:05:42.181Z,6.60
2018-12-01T14:08:10.396Z,6.30
2018-12-01T14:10:47.130Z,6.70
2018-12-01T14:13:15.593Z,7.27
2018-12-01T14:15:43.834Z,5.13
2018-12-01T14:18:13.384Z,6.20
2018-12-01T14:20:41.687Z,6.40
2018-12-01T14:23:10.013Z,6.70
2018-12-01T14:25:38.268Z,6.10
2018-12-01T14:28:09.048Z,6.60
2018-12-01T14:30:37.413Z,6.57
2018-12-01T14:33:06.244Z,6.87
2018-12-01T14:35:35.964Z,7.03
2018-12-01T14:38:08.010Z,6.60
2018-12-01T14:40:36.834Z,6.47
2018-12-01T14:43:05.010Z,6.43
2018-12-01T14:45:33.258Z,6.93
2018-12-01T14:48:01.475Z,6.77
2018-12-01T14:50:30.522Z,6.93
2018-12-01T14:52:58.733Z,6.47
2018-12-01T14:55:26.928Z,6.70
2018-12-01T14:57:55.113Z,6.70
2018-12-01T15:00:24.254Z,6.70
2018-12-01T15:02:53.442Z,6.70
2018-12-01T15:05:21.623Z,6.87
2018-12-01T15:07:50.282Z,6.50
2018-12-01T15:10:19.481Z,7.53
2018-12-01T15:12:47.772Z,7.50
2018-12-01T15:15:17.787Z,7.30
2018-12-01T15:17:45.327Z,7.03
2018-12-01T15:20:19.484Z,7.30
2018-12-01T15:22:50.780Z,7.00
2018-12-01T15:25:25.006Z,6.93
2018-12-01T15:27:53.222Z,6.67
2018-12-01T15:30:23.412Z,7.57
2018-12-01T15:32:58.973Z,7.93
2018-12-01T15:35:27.165Z,7.80
2018-12-01T15:37:55.390Z,7.93
2018-12-01T15:40:23.570Z,8.00
2018-12-01T15:42:51.949Z,7.90
2018-12-01T15:45:21.065Z,8.07
2018-12-01T15:47:49.286Z,8.60
2018-12-01T15:50:19.458Z,8.60
2018-12-01T15:52:50.255Z,8.60
2018-12-01T15:55:18.492Z,8.60
2018-12-01T15:57:46.712Z,8.50
2018-12-01T16:00:21.786Z,8.40
2018-12-01T16:02:50.178Z,8.67
2018-12-01T16:05:19.209Z,8.53
2018-12-01T16:07:48.367Z,8.83
2018-12-01T16:10:17.733Z,10.80
2018-12-01T16:12:47.240Z,9.03
2018-12-01T16:15:20.865Z,8.73
2018-12-01T16:17:49.048Z,9.30
2018-12-01T16:20:17.319Z,9.20
2018-12-01T16:22:45.601Z,9.53
2018-12-01T16:25:15.486Z,9.73
2018-12-01T16:27:44.862Z,9.40
2018-12-01T16:30:34.624Z,9.10
2018-12-01T16:33:05.066Z,9.70
2018-12-01T16:35:33.314Z,9.37
2018-12-01T16:38:01.566Z,10.43
2018-12-01T16:40:35.553Z,11.20
2018-12-01T16:43:06.229Z,10.47
2018-12-01T16:45:34.525Z,9.50
2018-12-01T16:48:02.744Z,9.60
2018-12-01T16:50:30.945Z,9.47
2018-12-01T16:52:59.145Z,9.50
2018-12-01T16:55:27.350Z,10.20
2018-12-01T16:57:55.579Z,10.50
2018-12-01T17:00:23.768Z,10.33
2018-12-01T17:02:53.640Z,10.40
2018-12-01T17:05:22.946Z,10.27
2018-12-01T17:07:51.284Z,10.60
2018-12-01T17:10:20.971Z,10.53
2018-12-01T17:12:50.612Z,10.33
2018-12-01T17:15:19.734Z,9.93
2018-12-01T17:17:48.042Z,10.03
2018-12-01T17:20:16.930Z,10.17
2018-12-01T17:23:01.954Z,10.40
2018-12-01T17:25:30.226Z,9.80
2018-12-01T17:27:59.355Z,10.47
2018-12-01T17:30:29.701Z,9.47
2018-12-01T17:32:59.117Z,9.70
2018-12-01T17:35:29.773Z,10.27
2018-12-01T17:38:00.325Z,9.83
2018-12-01T17:40:49.827Z,10.30
2018-12-01T17:43:20.265Z,10.90
2018-12-01T17:45:48.670Z,10.60
2018-12-01T17:48:16.887Z,9.60
2018-12-01T17:50:45.361Z,10.70
2018-12-01T17:53:13.550Z,10.47
2018-12-01T17:55:41.974Z,10.80
2018-12-01T17:58:10.905Z,10.00
2018-12-01T18:00:40.211Z,10.53
2018-12-01T18:03:08.981Z,10.30
2018-12-01T18:05:38.923Z,10.70
2018-12-01T18:08:11.661Z,10.50
2018-12-01T18:10:40.217Z,10.70
2018-12-01T18:13:09.039Z,10.50
2018-12-01T18:15:38.103Z,10.70
2018-12-01T18:18:06.758Z,10.90
2018-12-01T18:20:35.183Z,11.23
2018-12-01T18:23:03.775Z,10.30
2018-12-01T18:25:40.247Z,11.93
2018-12-01T18:28:09.711Z,11.47
2018-12-01T18:30:39.299Z,10.40
2018-12-01T18:33:17.923Z,11.57
2018-12-01T18:35:46.280Z,10.80
2018-12-01T18:38:14.495Z,10.33
2018-12-01T18:40:42.729Z,11.43
2018-12-01T18:43:11.229Z,10.53
2018-12-01T18:45:43.428Z,9.90
2018-12-01T18:48:11.683Z,9.50
2018-12-01T18:50:39.924Z,9.87
2018-12-01T18:53:09.381Z,10.43
2018-12-01T18:55:39.074Z,10.00
2018-12-01T18:58:08.826Z,10.30
2018-12-01T19:00:40.753Z,11.70
2018-12-01T19:03:10.109Z,10.70
2018-12-01T19:05:38.658Z,10.43
2018-12-01T19:08:07.221Z,9.90
2018-12-01T19:10:35.839Z,10.23
2018-12-01T19:13:04.233Z,10.40
2018-12-01T19:15:32.833Z,10.63
2018-12-01T19:18:01.484Z,10.40
2018-12-01T19:20:30.708Z,11.10
2018-12-01T19:22:59.390Z,10.47
2018-12-01T19:25:27.775Z,10.20
2018-12-01T19:27:56.741Z,10.20
2018-12-01T19:30:25.442Z,10.30
2018-12-01T19:32:57.853Z,10.03
2018-12-01T19:35:26.285Z,9.83
2018-12-01T19:37:55.256Z,10.10
2018-12-01T19:40:28.577Z,9.80
2018-12-01T19:42:53.308Z,10.27
2018-12-01T19:45:21.529Z,9.87
2018-12-01T19:47:49.765Z,9.87
2018-12-01T19:50:28.015Z,9.77
2018-12-01T19:52:56.268Z,10.00
2018-12-01T19:55:25.665Z,9.73
2018-12-01T19:57:54.093Z,9.17
2018-12-01T20:00:26.578Z,9.87
2018-12-01T20:02:55.461Z,9.63
2018-12-01T20:05:23.697Z,9.17
2018-12-01T20:07:52.588Z,9.07
2018-12-01T20:10:26.494Z,10.20
2018-12-01T20:12:57.353Z,10.23
2018-12-01T20:15:32.438Z,10.10
2018-12-01T20:18:02.589Z,9.87
2018-12-01T20:20:30.861Z,10.10
2018-12-01T20:22:59.126Z,9.77
2018-12-01T20:25:27.434Z,10.20
2018-12-01T20:27:55.842Z,10.33
2018-12-01T20:30:24.125Z,10.50
2018-12-01T20:32:52.474Z,10.20
2018-12-01T20:35:24.762Z,10.70
2018-12-01T20:37:58.510Z,9.80
2018-12-01T20:40:26.704Z,9.90
2018-12-01T20:42:54.955Z,9.40
2018-12-01T20:45:23.417Z,9.33
2018-12-01T20:47:52.044Z,9.80
2018-12-01T20:50:20.640Z,9.60
2018-12-01T20:52:49.444Z,9.67
2018-12-01T20:55:20.611Z,9.03
2018-12-01T20:57:53.775Z,10.07
2018-12-01T21:00:22.736Z,10.63
2018-12-01T21:02:51.250Z,9.57
2018-12-01T21:05:21.138Z,10.00
2018-12-01T21:07:49.985Z,9.50
2018-12-01T21:10:24.077Z,9.90
2018-12-01T21:12:52.649Z,9.07
2018-12-01T21:15:20.930Z,9.70
2018-12-01T21:17:49.385Z,9.00
2018-12-01T21:20:18.401Z,9.43
2018-12-01T21:22:49.049Z,8.70
2018-12-01T21:25:19.126Z,9.73
2018-12-01T21:27:47.501Z,9.87
2018-12-01T21:30:18.764Z,9.90
2018-12-01T21:35:39.487Z,10.00
2018-12-01T21:38:11.328Z,9.63
2018-12-01T21:40:40.274Z,9.90
2018-12-01T21:43:08.852Z,9.20
2018-12-01T21:45:37.075Z,8.87
2018-12-01T21:48:07.322Z,8.60
2018-12-01T21:50:35.594Z,9.23
2018-12-01T21:53:03.809Z,9.10
2018-12-01T21:55:32.036Z,8.80
2018-12-01T21:58:00.211Z,9.00
2018-12-01T22:00:30.338Z,8.70
2018-12-01T22:03:03.067Z,9.07
2018-12-01T22:05:39.272Z,8.87
2018-12-01T22:08:08.955Z,9.00
2018-12-01T22:10:37.172Z,9.20
2018-12-01T22:13:05.378Z,8.87
2018-12-01T22:15:33.566Z,9.10
2018-12-01T22:18:01.728Z,9.00
2018-12-01T22:20:30.155Z,9.53
2018-12-01T22:22:58.315Z,8.87
2018-12-01T22:25:26.477Z,8.70
2018-12-01T22:27:54.657Z,9.50
2018-12-01T22:30:23.466Z,9.40
2018-12-01T22:32:53.162Z,8.80
2018-12-01T22:35:22.548Z,9.40
2018-12-01T22:37:51.353Z,9.33
2018-12-01T22:40:30.802Z,9.10
2018-12-01T22:43:02.129Z,10.00
2018-12-01T22:45:30.433Z,8.47
2018-12-01T22:47:59.406Z,8.90
2018-12-01T22:50:27.581Z,8.47
2018-12-01T22:52:56.154Z,9.23
2018-12-01T22:55:25.466Z,8.60
2018-12-01T22:58:26.270Z,10.30
2018-12-01T23:00:56.665Z,8.70
2018-12-01T23:03:26.169Z,9.23
2018-12-01T23:05:54.365Z,9.33
2018-12-01T23:08:23.694Z,9.00
2018-12-01T23:10:51.894Z,8.20
2018-12-01T23:13:20.238Z,8.53
2018-12-01T23:15:48.551Z,9.30
2018-12-01T23:18:18.058Z,8.40
2018-12-01T23:20:47.257Z,9.00
2018-12-01T23:23:15.634Z,8.70
2018-12-01T23:25:43.842Z,8.60
2018-12-01T23:28:12.028Z,8.90
2018-12-01T23:30:41.904Z,8.87
2018-12-01T23:33:12.628Z,8.60
2018-12-01T23:35:41.106Z,8.40
2018-12-01T23:38:09.390Z,9.10
2018-12-01T23:40:38.877Z,8.80
2018-12-01T23:43:07.072Z,8.80
2018-12-01T23:45:35.655Z,8.43
2018-12-01T23:48:04.666Z,8.63
2018-12-01T23:50:31.985Z,8.00
2018-12-01T23:53:01.609Z,9.10
2018-12-01T23:55:29.777Z,8.47
2018-12-01T23:57:57.937Z,8.30
